Terminal Aerodrome Forecast
Issued by NWS

Current Version | Previous Version | Text Only | Print | Product List | Glossary Off
Versions: 1 2 3 4 5 6 7 8 9 10 11 12 13 14 15 16 17 18 19 20 21 22 23 24 25 26

992
FTUS41 KILN 281138
TAFLUK
TAF
KLUK 281138Z 2812/2912 18006KT P6SM VCTS SCT050CB BKN080
      TEMPO 2814/2817 5SM -TSRA BR OVC040CB
     FM281800 21010KT 4SM -TSRA BR OVC050CB
     FM282100 22008KT P6SM VCTS OVC050CB
     FM290000 30004KT P6SM BKN040
     FM290400 VRB03KT 4SM BR BKN018
     FM290800 VRB03KT 2SM BR OVC009=

USA.gov is the U.S. government's official web portal to all federal, state and local government web resources and services.